createdAt,value
2017-03-29T00:00:25.685Z,0
2017-03-29T00:01:07.660Z,0
2017-03-29T00:01:48.094Z,0
2017-03-29T00:02:28.501Z,0
2017-03-29T00:03:09.150Z,0
2017-03-29T00:03:51.092Z,0
2017-03-29T00:04:31.484Z,0
2017-03-29T00:05:11.894Z,0
2017-03-29T00:05:52.278Z,0
2017-03-29T00:06:32.719Z,0
2017-03-29T00:07:14.102Z,0
2017-03-29T00:07:54.519Z,0
2017-03-29T00:08:35.505Z,0
2017-03-29T00:09:15.912Z,0
2017-03-29T00:09:56.364Z,0
2017-03-29T00:10:37.955Z,0
2017-03-29T00:11:18.041Z,0
2017-03-29T00:11:58.662Z,0
2017-03-29T00:12:39.064Z,0
2017-03-29T00:13:19.520Z,0
2017-03-29T00:13:59.894Z,0
2017-03-29T00:14:40.387Z,0
2017-03-29T00:15:20.769Z,0
2017-03-29T00:16:02.537Z,0
2017-03-29T00:16:41.880Z,0
2017-03-29T00:17:22.348Z,0
2017-03-29T00:18:02.732Z,0
2017-03-29T00:18:46.911Z,0
2017-03-29T00:19:27.358Z,0
2017-03-29T00:20:08.544Z,0
2017-03-29T00:20:49.894Z,0
2017-03-29T00:21:30.946Z,0
2017-03-29T00:22:11.375Z,0
2017-03-29T00:22:51.767Z,0
2017-03-29T00:23:32.657Z,0
2017-03-29T00:24:13.065Z,0
2017-03-29T00:24:54.047Z,0
2017-03-29T00:25:34.454Z,0
2017-03-29T00:26:15.561Z,0
2017-03-29T00:26:56.594Z,0
2017-03-29T00:27:37.362Z,0
2017-03-29T00:28:17.870Z,0
2017-03-29T00:28:58.215Z,0
2017-03-29T00:29:39.264Z,0
2017-03-29T00:30:19.684Z,0
2017-03-29T00:31:00.077Z,0
2017-03-29T00:31:40.478Z,0
2017-03-29T00:32:20.880Z,0
2017-03-29T00:33:01.308Z,0
2017-03-29T00:33:41.734Z,0
2017-03-29T00:34:22.120Z,0
2017-03-29T00:35:02.534Z,0
2017-03-29T00:35:42.963Z,0
2017-03-29T00:36:23.348Z,0
2017-03-29T00:37:03.788Z,0
2017-03-29T00:37:44.206Z,0
2017-03-29T00:38:24.662Z,0
2017-03-29T00:39:05.028Z,0
2017-03-29T00:39:45.454Z,0
2017-03-29T00:40:25.894Z,0
2017-03-29T00:41:06.289Z,0
2017-03-29T00:41:46.654Z,0
2017-03-29T00:42:27.099Z,0
2017-03-29T00:43:07.520Z,0
2017-03-29T00:43:47.969Z,0
2017-03-29T00:44:28.353Z,0
2017-03-29T00:45:08.783Z,0
2017-03-29T00:45:49.205Z,0
2017-03-29T00:46:29.574Z,0
2017-03-29T00:47:10.028Z,0
2017-03-29T00:47:50.455Z,0
2017-03-29T00:48:30.829Z,0
2017-03-29T00:49:11.235Z,0
2017-03-29T00:49:51.629Z,0
2017-03-29T00:50:32.058Z,0
2017-03-29T00:51:12.507Z,0
2017-03-29T00:51:52.904Z,0
2017-03-29T00:52:33.312Z,0
2017-03-29T00:53:13.704Z,0
2017-03-29T00:53:54.113Z,0
2017-03-29T00:54:34.492Z,0
2017-03-29T00:55:14.912Z,0
2017-03-29T00:55:55.348Z,0
2017-03-29T00:56:35.746Z,0
2017-03-29T00:57:16.152Z,0
2017-03-29T00:57:56.627Z,0
2017-03-29T00:58:36.993Z,0
2017-03-29T00:59:17.443Z,0
2017-03-29T00:59:57.794Z,0
2017-03-29T01:00:38.242Z,0
2017-03-29T01:01:18.647Z,0
2017-03-29T01:01:59.060Z,0
2017-03-29T01:02:39.523Z,0
2017-03-29T01:03:19.869Z,0
2017-03-29T01:04:00.264Z,0
2017-03-29T01:04:40.661Z,0
2017-03-29T01:05:21.083Z,0
2017-03-29T01:06:01.478Z,0
2017-03-29T01:06:41.862Z,0
2017-03-29T01:07:22.265Z,0
2017-03-29T01:08:02.732Z,0
2017-03-29T01:08:43.151Z,0
2017-03-29T01:09:23.542Z,0
2017-03-29T01:10:03.954Z,0
2017-03-29T01:10:44.351Z,0
2017-03-29T01:11:24.730Z,0
2017-03-29T01:12:05.160Z,0
2017-03-29T01:12:45.564Z,0
2017-03-29T01:13:25.989Z,0
2017-03-29T01:14:06.435Z,0
2017-03-29T01:14:46.868Z,0
2017-03-29T01:15:27.263Z,0
2017-03-29T01:16:07.703Z,0
2017-03-29T01:16:48.102Z,0
2017-03-29T01:17:28.499Z,0
2017-03-29T01:18:08.922Z,0
2017-03-29T01:18:49.298Z,0
2017-03-29T01:19:29.724Z,0
2017-03-29T01:20:10.104Z,0
2017-03-29T01:20:50.552Z,0
2017-03-29T01:21:30.955Z,0
2017-03-29T01:22:11.360Z,0
2017-03-29T01:22:51.750Z,0
2017-03-29T01:23:32.155Z,0
2017-03-29T01:24:12.544Z,0
2017-03-29T01:24:52.947Z,0
2017-03-29T01:25:33.346Z,0
2017-03-29T01:26:13.777Z,0
2017-03-29T01:26:54.204Z,0
2017-03-29T01:27:34.620Z,0
2017-03-29T01:28:15.032Z,0
2017-03-29T01:28:55.424Z,0
2017-03-29T01:29:35.850Z,0
2017-03-29T01:30:16.226Z,0
2017-03-29T01:30:56.613Z,0
2017-03-29T01:31:37.312Z,0
2017-03-29T01:32:17.408Z,0
2017-03-29T01:32:57.803Z,0
2017-03-29T01:33:38.231Z,0
2017-03-29T01:34:18.657Z,0
2017-03-29T01:34:59.034Z,0
2017-03-29T01:35:39.476Z,0
2017-03-29T01:36:19.868Z,0
2017-03-29T01:37:00.269Z,0
2017-03-29T01:37:40.758Z,0
2017-03-29T01:38:21.180Z,0
2017-03-29T01:39:01.552Z,0
2017-03-29T01:39:41.977Z,0
2017-03-29T01:40:22.357Z,0
2017-03-29T01:41:02.804Z,0
2017-03-29T01:41:43.231Z,0
2017-03-29T01:42:23.609Z,0
2017-03-29T01:43:04.009Z,0
2017-03-29T01:43:44.536Z,0
2017-03-29T01:44:24.933Z,0
2017-03-29T01:45:05.430Z,0
2017-03-29T01:45:45.865Z,0
2017-03-29T01:46:26.257Z,0
2017-03-29T01:47:06.665Z,0
2017-03-29T01:47:47.044Z,0
2017-03-29T01:48:27.506Z,0
2017-03-29T01:49:07.865Z,0
2017-03-29T01:49:48.314Z,0
2017-03-29T01:50:28.705Z,0
2017-03-29T01:51:09.074Z,0
2017-03-29T01:51:49.500Z,0
2017-03-29T01:52:29.890Z,0
2017-03-29T01:53:10.328Z,0
2017-03-29T01:53:50.673Z,0
2017-03-29T01:54:31.088Z,0
2017-03-29T01:55:11.513Z,0
2017-03-29T01:55:51.924Z,0
2017-03-29T01:56:32.320Z,0
2017-03-29T01:57:12.729Z,0
2017-03-29T01:57:53.138Z,0
2017-03-29T01:58:33.535Z,0
2017-03-29T01:59:13.945Z,0
2017-03-29T01:59:54.383Z,0
2017-03-29T02:00:34.811Z,0
2017-03-29T02:01:15.151Z,0
2017-03-29T02:01:55.575Z,0
2017-03-29T02:02:36.005Z,0
2017-03-29T02:03:16.411Z,0
2017-03-29T02:03:56.774Z,0
2017-03-29T02:04:37.162Z,0
2017-03-29T02:05:17.634Z,0
2017-03-29T02:05:57.969Z,0
2017-03-29T02:06:38.403Z,0
2017-03-29T02:07:18.910Z,0
2017-03-29T02:07:59.227Z,0
2017-03-29T02:08:39.645Z,0
2017-03-29T02:09:20.058Z,0
2017-03-29T02:10:00.491Z,0
2017-03-29T02:10:40.883Z,0
2017-03-29T02:11:21.274Z,0
2017-03-29T02:12:01.681Z,0
2017-03-29T02:12:42.057Z,0
2017-03-29T02:13:22.456Z,0
2017-03-29T02:14:02.886Z,0
2017-03-29T02:14:43.299Z,0
2017-03-29T02:15:23.759Z,0
2017-03-29T02:16:04.198Z,0
2017-03-29T02:16:44.556Z,0
2017-03-29T02:17:24.998Z,0
2017-03-29T02:18:05.357Z,0
2017-03-29T02:18:45.720Z,0
2017-03-29T02:19:26.133Z,0
2017-03-29T02:20:06.565Z,0
2017-03-29T02:20:46.996Z,0
2017-03-29T02:21:27.375Z,0
2017-03-29T02:22:07.744Z,0
2017-03-29T02:22:48.105Z,0
2017-03-29T02:23:28.611Z,0
2017-03-29T02:24:08.985Z,0
2017-03-29T02:24:49.422Z,0
2017-03-29T02:25:29.804Z,0
2017-03-29T02:26:10.304Z,0
2017-03-29T02:26:50.703Z,0
2017-03-29T02:27:31.105Z,0
2017-03-29T02:28:11.536Z,0
2017-03-29T02:28:51.958Z,0
2017-03-29T02:29:32.381Z,0
2017-03-29T02:30:12.851Z,0
2017-03-29T02:30:53.249Z,0
2017-03-29T02:31:33.595Z,0
2017-03-29T02:32:14.049Z,0
2017-03-29T02:32:54.403Z,0
2017-03-29T02:33:34.862Z,0
2017-03-29T02:34:15.251Z,0
2017-03-29T02:34:55.644Z,0
2017-03-29T02:35:36.035Z,0
2017-03-29T02:36:16.462Z,0
2017-03-29T02:36:56.822Z,0
2017-03-29T02:37:37.257Z,0
2017-03-29T02:38:17.639Z,0
2017-03-29T02:38:58.067Z,0
2017-03-29T02:39:38.480Z,0
2017-03-29T02:40:18.848Z,0
2017-03-29T02:40:59.307Z,0
2017-03-29T02:41:39.705Z,0
2017-03-29T02:42:20.124Z,0
2017-03-29T02:43:00.523Z,0
2017-03-29T02:43:40.942Z,0
2017-03-29T02:44:21.389Z,0
2017-03-29T02:45:01.772Z,0
2017-03-29T02:45:42.141Z,0
2017-03-29T02:46:22.593Z,0
2017-03-29T02:47:02.975Z,0
2017-03-29T02:47:43.386Z,0
2017-03-29T02:48:23.777Z,0
2017-03-29T02:49:04.225Z,0
2017-03-29T02:49:44.589Z,0
2017-03-29T02:50:25.035Z,0
2017-03-29T02:51:05.433Z,0
2017-03-29T02:51:45.809Z,0
2017-03-29T02:52:26.316Z,0
2017-03-29T02:53:06.732Z,0
2017-03-29T02:53:47.164Z,0
2017-03-29T02:54:27.530Z,0
2017-03-29T02:55:07.999Z,0
2017-03-29T02:55:48.376Z,0
2017-03-29T02:56:28.815Z,0
2017-03-29T02:57:09.190Z,0
2017-03-29T02:57:49.559Z,0
2017-03-29T02:58:30.055Z,0
2017-03-29T02:59:10.387Z,0
2017-03-29T02:59:50.818Z,0
2017-03-29T03:00:31.248Z,0
2017-03-29T03:01:11.647Z,0
2017-03-29T03:01:52.055Z,0
2017-03-29T03:02:32.481Z,0
2017-03-29T03:03:12.920Z,0
2017-03-29T03:03:53.333Z,0
2017-03-29T03:04:33.763Z,0
2017-03-29T03:05:14.168Z,0
2017-03-29T03:05:54.564Z,0
2017-03-29T03:06:34.965Z,0
2017-03-29T03:07:15.449Z,0
2017-03-29T03:07:55.830Z,0
2017-03-29T03:08:36.302Z,0
2017-03-29T03:09:16.674Z,0
2017-03-29T03:09:57.117Z,0
2017-03-29T03:10:37.715Z,0
2017-03-29T03:11:18.998Z,0
2017-03-29T03:11:59.441Z,0
2017-03-29T03:12:39.802Z,0
2017-03-29T03:13:20.252Z,0
2017-03-29T03:14:00.656Z,0
2017-03-29T03:14:41.068Z,0
2017-03-29T03:15:21.515Z,0
2017-03-29T03:16:01.981Z,0
2017-03-29T03:16:42.414Z,0
2017-03-29T03:17:22.809Z,0
2017-03-29T03:18:03.184Z,0
2017-03-29T03:18:44.568Z,0
2017-03-29T03:19:24.992Z,0
2017-03-29T03:20:05.370Z,0
2017-03-29T03:20:45.783Z,0
2017-03-29T03:21:26.180Z,0
2017-03-29T03:22:07.311Z,0
2017-03-29T03:22:47.700Z,0
2017-03-29T03:23:28.115Z,0
2017-03-29T03:24:08.532Z,0
2017-03-29T03:24:48.924Z,0
2017-03-29T03:25:29.366Z,0
2017-03-29T03:26:09.782Z,0
2017-03-29T03:26:50.185Z,0
2017-03-29T03:27:30.591Z,0
2017-03-29T03:28:11.037Z,0
2017-03-29T03:28:51.445Z,0
2017-03-29T03:29:31.831Z,0
2017-03-29T03:30:12.211Z,0
2017-03-29T03:30:52.651Z,0
2017-03-29T03:31:33.075Z,0
2017-03-29T03:32:13.443Z,0
2017-03-29T03:32:53.877Z,0
2017-03-29T03:33:34.294Z,0
2017-03-29T03:34:14.686Z,0
2017-03-29T03:34:55.073Z,0
2017-03-29T03:37:33.112Z,0
2017-03-29T03:38:23.341Z,0
2017-03-29T03:41:23.866Z,0
2017-03-29T03:42:11.765Z,0
2017-03-29T03:46:41.889Z,0
2017-03-29T03:47:28.438Z,0
2017-03-29T03:48:14.740Z,0
2017-03-29T03:48:58.165Z,0
2017-03-29T03:49:38.512Z,0
2017-03-29T03:50:19.447Z,0
2017-03-29T03:50:59.876Z,0
2017-03-29T03:51:40.291Z,0
2017-03-29T03:53:58.380Z,0
2017-03-29T03:54:38.787Z,0
2017-03-29T03:55:19.201Z,0
2017-03-29T03:55:59.678Z,0
2017-03-29T03:56:40.083Z,0
2017-03-29T03:57:20.502Z,0
2017-03-29T03:58:00.936Z,0
2017-03-29T03:58:41.370Z,0
2017-03-29T03:59:21.773Z,0
2017-03-29T04:00:02.173Z,0
2017-03-29T04:00:42.541Z,0
2017-03-29T04:01:23.788Z,0
2017-03-29T04:02:04.175Z,0
2017-03-29T04:02:44.609Z,0
2017-03-29T04:03:25.009Z,0
2017-03-29T04:04:05.426Z,0
2017-03-29T04:04:45.793Z,0
2017-03-29T04:05:26.203Z,0
2017-03-29T04:06:06.620Z,0
2017-03-29T04:06:47.029Z,0
2017-03-29T04:07:27.417Z,0
2017-03-29T04:08:07.821Z,0
2017-03-29T04:08:48.260Z,0
2017-03-29T04:09:28.741Z,0
2017-03-29T04:10:09.078Z,0
2017-03-29T04:10:49.499Z,0
2017-03-29T04:11:31.969Z,0
2017-03-29T04:12:12.369Z,0
2017-03-29T04:12:52.804Z,0
2017-03-29T04:13:33.206Z,0
2017-03-29T04:14:13.728Z,0
2017-03-29T04:14:54.057Z,0
2017-03-29T04:15:34.450Z,0
2017-03-29T04:16:14.906Z,0
2017-03-29T04:16:55.305Z,0
2017-03-29T04:17:35.732Z,0
2017-03-29T04:18:16.104Z,0
2017-03-29T04:18:56.528Z,0
2017-03-29T04:19:36.947Z,0
2017-03-29T04:20:17.339Z,0
2017-03-29T04:20:57.813Z,0
2017-03-29T04:21:38.191Z,0
2017-03-29T04:22:18.662Z,0
2017-03-29T04:22:59.031Z,0
2017-03-29T04:23:39.472Z,0
2017-03-29T04:24:19.870Z,0
2017-03-29T04:25:00.338Z,0
2017-03-29T04:25:40.695Z,0
2017-03-29T04:26:22.013Z,0
2017-03-29T04:27:02.452Z,0
2017-03-29T04:27:42.872Z,0
2017-03-29T04:28:25.056Z,0
2017-03-29T04:29:05.424Z,0
2017-03-29T04:29:45.853Z,0
2017-03-29T04:30:26.256Z,0
2017-03-29T04:31:06.643Z,0
2017-03-29T04:31:47.072Z,0
2017-03-29T04:32:27.446Z,0
2017-03-29T04:33:07.910Z,0
2017-03-29T04:33:48.324Z,0
2017-03-29T04:34:28.735Z,0
2017-03-29T04:35:09.119Z,0
2017-03-29T04:35:49.575Z,0
2017-03-29T04:36:31.551Z,0
2017-03-29T04:37:11.925Z,0
2017-03-29T04:37:52.419Z,0
2017-03-29T04:38:32.794Z,0
2017-03-29T04:39:13.220Z,0
2017-03-29T04:39:53.648Z,0
2017-03-29T04:40:34.106Z,0
2017-03-29T04:41:14.522Z,0
2017-03-29T04:41:54.911Z,0
2017-03-29T04:42:35.310Z,0
2017-03-29T04:43:17.763Z,0
2017-03-29T04:43:58.338Z,0
2017-03-29T04:44:39.468Z,0
2017-03-29T04:45:21.499Z,0
2017-03-29T04:46:02.454Z,0
2017-03-29T04:46:42.921Z,0
2017-03-29T04:47:23.330Z,0
2017-03-29T04:48:03.731Z,0
2017-03-29T04:48:44.133Z,0
2017-03-29T04:49:24.535Z,0
2017-03-29T04:50:05.012Z,0
2017-03-29T04:50:45.390Z,0
2017-03-29T04:51:25.799Z,0
2017-03-29T04:52:06.224Z,0
2017-03-29T04:52:46.592Z,0
2017-03-29T04:53:27.339Z,0
2017-03-29T04:54:08.106Z,0
2017-03-29T04:54:48.548Z,0
2017-03-29T04:55:29.028Z,0
2017-03-29T04:56:09.523Z,0
2017-03-29T04:56:50.016Z,0
2017-03-29T04:57:30.253Z,0
2017-03-29T04:58:10.638Z,0
2017-03-29T04:58:51.047Z,5
2017-03-29T04:59:31.701Z,5
2017-03-29T05:00:12.134Z,5
2017-03-29T05:00:52.654Z,5
2017-03-29T05:01:33.044Z,5
2017-03-29T05:02:13.435Z,5
2017-03-29T05:02:53.836Z,5
2017-03-29T05:03:34.249Z,5
2017-03-29T05:04:14.684Z,5
2017-03-29T05:04:55.056Z,10
2017-03-29T05:05:35.537Z,10
2017-03-29T05:06:15.939Z,10
2017-03-29T05:06:56.307Z,10
2017-03-29T05:07:36.776Z,10
2017-03-29T05:08:17.195Z,10
2017-03-29T05:08:57.593Z,15
2017-03-29T05:09:38.043Z,15
2017-03-29T05:10:18.491Z,15
2017-03-29T05:10:59.536Z,15
2017-03-29T05:13:45.561Z,20
2017-03-29T05:14:34.181Z,20
2017-03-29T05:15:19.456Z,25
2017-03-29T05:16:08.089Z,25
2017-03-29T05:16:54.199Z,25
2017-03-29T05:17:34.599Z,25
2017-03-29T05:18:14.999Z,30
2017-03-29T05:18:55.412Z,30
2017-03-29T05:19:35.868Z,30
2017-03-29T05:20:16.312Z,35
2017-03-29T05:20:56.732Z,35
2017-03-29T05:21:37.123Z,35
2017-03-29T05:22:17.553Z,40
2017-03-29T05:22:57.950Z,40
2017-03-29T05:23:38.433Z,40
2017-03-29T05:24:18.876Z,45
2017-03-29T05:24:59.203Z,45
2017-03-29T05:25:39.645Z,45
2017-03-29T05:26:20.895Z,50
2017-03-29T05:27:01.304Z,50
2017-03-29T05:27:42.301Z,50
2017-03-29T05:28:22.649Z,55
2017-03-29T05:29:03.062Z,55
2017-03-29T05:29:43.475Z,55
2017-03-29T05:30:24.522Z,60
2017-03-29T05:31:05.786Z,60
2017-03-29T05:31:46.213Z,65
2017-03-29T05:32:26.649Z,65
2017-03-29T05:33:07.043Z,65
2017-03-29T05:33:47.414Z,70
2017-03-29T05:34:27.849Z,70
2017-03-29T05:35:08.304Z,75
2017-03-29T05:35:48.691Z,75
2017-03-29T05:36:29.091Z,75
2017-03-29T05:37:09.565Z,80
2017-03-29T05:37:49.929Z,80
2017-03-29T05:38:30.375Z,80
2017-03-29T05:39:10.791Z,85
2017-03-29T05:39:51.213Z,85
2017-03-29T05:40:31.601Z,85
2017-03-29T05:41:12.064Z,90
2017-03-29T05:41:52.472Z,90
2017-03-29T05:42:32.935Z,90
2017-03-29T05:43:13.344Z,95
2017-03-29T05:43:53.713Z,95
2017-03-29T05:44:34.150Z,95
2017-03-29T05:45:15.130Z,100
2017-03-29T05:45:56.138Z,100
2017-03-29T05:46:36.537Z,100
2017-03-29T05:47:16.951Z,105
2017-03-29T05:47:57.362Z,105
2017-03-29T05:48:37.807Z,105
2017-03-29T05:49:18.255Z,110
2017-03-29T05:49:58.653Z,110
2017-03-29T05:50:39.017Z,110
2017-03-29T05:51:19.448Z,115
2017-03-29T05:51:59.856Z,115
2017-03-29T05:52:40.273Z,120
2017-03-29T05:53:20.729Z,120
2017-03-29T05:54:01.123Z,125
2017-03-29T05:54:41.554Z,130
2017-03-29T05:55:21.963Z,130
2017-03-29T05:56:02.375Z,130
2017-03-29T05:56:42.760Z,135
2017-03-29T05:57:23.192Z,135
2017-03-29T05:58:03.603Z,135
2017-03-29T05:58:43.996Z,140
2017-03-29T05:59:24.410Z,140
2017-03-29T06:00:04.789Z,145
2017-03-29T06:00:45.218Z,145
2017-03-29T06:01:25.609Z,145
2017-03-29T06:02:06.026Z,150
2017-03-29T06:02:46.447Z,150
2017-03-29T06:03:26.800Z,155
2017-03-29T06:04:07.241Z,155
2017-03-29T06:04:47.618Z,160
2017-03-29T06:05:28.067Z,165
2017-03-29T06:06:08.480Z,165
2017-03-29T06:06:48.880Z,170
2017-03-29T06:07:29.343Z,180
2017-03-29T06:08:09.779Z,190
2017-03-29T06:08:50.137Z,200
2017-03-29T06:09:30.674Z,200
2017-03-29T06:10:11.087Z,210
2017-03-29T06:10:51.494Z,215
2017-03-29T06:11:31.954Z,220
2017-03-29T06:12:12.340Z,225
2017-03-29T06:12:52.768Z,230
2017-03-29T06:13:33.191Z,240
2017-03-29T06:14:13.573Z,250
2017-03-29T06:14:54.015Z,255
2017-03-29T06:15:34.458Z,255
2017-03-29T06:16:14.863Z,255
2017-03-29T06:16:55.260Z,250
2017-03-29T06:17:36.326Z,255
2017-03-29T06:18:16.713Z,255
2017-03-29T06:18:57.121Z,255
2017-03-29T06:19:37.583Z,255
2017-03-29T06:20:17.971Z,255
2017-03-29T06:20:58.419Z,255
2017-03-29T06:21:38.803Z,250
2017-03-29T06:22:19.220Z,245
2017-03-29T06:22:59.577Z,235
2017-03-29T06:23:40.001Z,235
2017-03-29T06:24:20.436Z,255
2017-03-29T06:25:00.837Z,255
2017-03-29T06:25:41.273Z,260
2017-03-29T06:26:21.671Z,265
2017-03-29T06:27:02.098Z,275
2017-03-29T06:27:42.486Z,285
2017-03-29T06:28:22.907Z,285
2017-03-29T06:29:03.277Z,285
2017-03-29T06:29:44.420Z,285
2017-03-29T06:30:24.863Z,290
2017-03-29T06:31:05.276Z,290
2017-03-29T06:31:45.686Z,295
2017-03-29T06:32:26.097Z,300
2017-03-29T06:33:06.544Z,305
2017-03-29T06:33:46.976Z,315
2017-03-29T06:34:27.328Z,320
2017-03-29T06:35:07.771Z,325
2017-03-29T06:35:48.222Z,325
2017-03-29T06:36:28.668Z,330
2017-03-29T06:37:09.088Z,330
2017-03-29T06:37:49.442Z,330
2017-03-29T06:38:29.845Z,335
2017-03-29T06:39:10.245Z,335
2017-03-29T06:39:50.615Z,335
2017-03-29T06:40:31.049Z,335
2017-03-29T06:41:11.502Z,335
2017-03-29T06:41:51.860Z,340
2017-03-29T06:42:32.331Z,340
2017-03-29T06:43:12.788Z,335
2017-03-29T06:43:53.151Z,335
2017-03-29T06:44:33.614Z,335
2017-03-29T06:45:14.018Z,330
2017-03-29T06:45:54.425Z,340
2017-03-29T06:46:34.841Z,340
2017-03-29T06:47:15.235Z,340
2017-03-29T06:47:55.776Z,335
2017-03-29T06:48:36.148Z,335
2017-03-29T06:49:16.578Z,340
2017-03-29T06:49:57.000Z,340
2017-03-29T06:50:37.390Z,350
2017-03-29T06:51:17.825Z,360
2017-03-29T06:51:58.255Z,360
2017-03-29T06:52:38.647Z,365
2017-03-29T06:53:19.086Z,370
2017-03-29T06:53:59.488Z,360
2017-03-29T06:54:40.031Z,360
2017-03-29T06:55:20.443Z,365
2017-03-29T06:56:00.888Z,380
2017-03-29T06:56:41.247Z,390
2017-03-29T06:57:21.638Z,400
2017-03-29T06:58:02.028Z,405
2017-03-29T06:58:42.426Z,405
2017-03-29T06:59:22.820Z,405
2017-03-29T07:00:03.223Z,405
2017-03-29T07:00:44.022Z,410
2017-03-29T07:01:24.667Z,415
2017-03-29T07:02:05.389Z,415
2017-03-29T07:02:45.839Z,420
2017-03-29T07:03:26.980Z,425
2017-03-29T07:04:07.483Z,430
2017-03-29T07:04:47.884Z,435
2017-03-29T07:05:28.900Z,435
2017-03-29T07:06:09.326Z,440
2017-03-29T07:06:49.804Z,440
2017-03-29T07:07:30.190Z,445
2017-03-29T07:08:10.590Z,445
2017-03-29T07:08:50.995Z,445
2017-03-29T07:09:31.437Z,450
2017-03-29T07:10:11.832Z,445
2017-03-29T07:10:52.182Z,445
2017-03-29T07:11:32.621Z,445
2017-03-29T07:12:13.043Z,440
2017-03-29T07:12:53.482Z,435
2017-03-29T07:13:33.940Z,430
2017-03-29T07:14:14.330Z,440
2017-03-29T07:14:54.690Z,445
2017-03-29T07:15:35.105Z,455
2017-03-29T07:16:15.518Z,460
2017-03-29T07:16:55.918Z,450
2017-03-29T07:17:36.388Z,445
2017-03-29T07:18:16.754Z,455
2017-03-29T07:18:57.196Z,455
2017-03-29T07:19:38.421Z,465
2017-03-29T07:20:18.855Z,480
2017-03-29T07:20:59.316Z,485
2017-03-29T07:21:39.769Z,495
2017-03-29T07:22:20.188Z,495
2017-03-29T07:23:00.581Z,505
2017-03-29T07:23:42.731Z,510
2017-03-29T07:24:23.169Z,515
2017-03-29T07:25:03.553Z,515
2017-03-29T07:25:43.962Z,520
2017-03-29T07:26:25.101Z,520
2017-03-29T07:27:05.522Z,525
2017-03-29T07:27:46.929Z,530
2017-03-29T07:28:27.331Z,535
2017-03-29T07:29:07.762Z,540
2017-03-29T07:29:48.172Z,540
2017-03-29T07:30:28.646Z,545
2017-03-29T07:31:09.014Z,545
2017-03-29T07:31:49.385Z,545
2017-03-29T07:32:29.834Z,545
2017-03-29T07:33:10.253Z,545
2017-03-29T07:33:50.653Z,545
2017-03-29T07:34:31.060Z,530
2017-03-29T07:35:11.495Z,500
2017-03-29T07:35:52.685Z,525
2017-03-29T07:36:33.095Z,545
2017-03-29T07:37:13.477Z,555
2017-03-29T07:37:53.967Z,555
2017-03-29T07:38:35.299Z,580
2017-03-29T07:39:15.759Z,585
2017-03-29T07:39:56.140Z,590
2017-03-29T07:40:36.610Z,600
2017-03-29T07:41:17.014Z,600
2017-03-29T07:41:57.467Z,600
2017-03-29T07:42:37.866Z,605
2017-03-29T07:43:18.297Z,610
2017-03-29T07:43:59.339Z,620
2017-03-29T07:44:39.737Z,625
2017-03-29T07:45:20.171Z,630
2017-03-29T07:46:00.572Z,635
2017-03-29T07:46:41.040Z,645
2017-03-29T07:47:21.477Z,645
2017-03-29T07:48:01.916Z,650
2017-03-29T07:48:42.333Z,650
2017-03-29T07:49:24.457Z,655
2017-03-29T07:50:04.851Z,660
2017-03-29T07:50:45.891Z,665
2017-03-29T07:51:26.343Z,670
2017-03-29T07:52:06.722Z,670
2017-03-29T07:52:47.142Z,665
2017-03-29T07:53:27.655Z,660
2017-03-29T07:54:08.038Z,675
2017-03-29T07:54:48.468Z,705
2017-03-29T07:55:28.884Z,715
2017-03-29T07:56:09.327Z,725
2017-03-29T07:56:49.705Z,745
2017-03-29T07:57:30.097Z,765
2017-03-29T07:58:10.536Z,765
2017-03-29T07:58:50.980Z,775
2017-03-29T07:59:31.932Z,785
2017-03-29T08:00:12.930Z,795
2017-03-29T08:00:53.385Z,890
2017-03-29T08:01:34.268Z,965
2017-03-29T08:02:14.677Z,1285
2017-03-29T08:02:55.104Z,1825
2017-03-29T08:05:30.104Z,2705
2017-03-29T08:06:11.143Z,2615
2017-03-29T08:06:51.502Z,2485
2017-03-29T08:07:31.921Z,2525
2017-03-29T08:08:13.046Z,2660
2017-03-29T08:08:53.462Z,2800
2017-03-29T08:09:33.909Z,2820
2017-03-29T08:10:14.325Z,2790
2017-03-29T08:10:54.685Z,2835
2017-03-29T08:11:35.163Z,2850
2017-03-29T08:12:15.613Z,2715
2017-03-29T08:12:56.019Z,2735
2017-03-29T08:13:36.476Z,3025
2017-03-29T08:14:16.968Z,3060
2017-03-29T08:14:57.361Z,2895
2017-03-29T08:15:37.805Z,3105
2017-03-29T08:16:18.195Z,3095
2017-03-29T08:16:58.635Z,3200
2017-03-29T08:17:39.029Z,3175
2017-03-29T08:18:20.299Z,3225
2017-03-29T08:19:00.736Z,3350
2017-03-29T08:19:41.109Z,3495
2017-03-29T08:20:21.539Z,3530
2017-03-29T08:21:01.953Z,3430
2017-03-29T08:21:42.365Z,3365
2017-03-29T08:22:22.787Z,3120
2017-03-29T08:23:03.156Z,3190
2017-03-29T08:23:43.603Z,3290
2017-03-29T08:24:24.026Z,3235
2017-03-29T08:25:04.470Z,3195
2017-03-29T08:25:44.850Z,3375
2017-03-29T08:26:25.982Z,3490
2017-03-29T08:27:06.396Z,3555
2017-03-29T08:27:46.827Z,3395
2017-03-29T08:28:28.136Z,2965
2017-03-29T08:29:08.593Z,2950
2017-03-29T08:29:49.005Z,3115
2017-03-29T08:30:29.516Z,3250
2017-03-29T08:31:09.947Z,3155
2017-03-29T08:31:50.347Z,3115
2017-03-29T08:32:30.753Z,3145
2017-03-29T08:33:11.228Z,3100
2017-03-29T08:33:51.620Z,3185
2017-03-29T08:34:32.084Z,3105
2017-03-29T08:35:12.496Z,3355
2017-03-29T08:35:52.917Z,3210
2017-03-29T08:36:33.320Z,3330
2017-03-29T08:37:13.743Z,3495
2017-03-29T08:37:55.102Z,3445
2017-03-29T08:38:35.545Z,3325
2017-03-29T08:39:15.950Z,3415
2017-03-29T08:39:56.369Z,3535
2017-03-29T08:40:36.790Z,3570
2017-03-29T08:41:17.202Z,3355
2017-03-29T08:41:57.623Z,3455
2017-03-29T08:42:38.075Z,3340
2017-03-29T08:43:18.484Z,3260
2017-03-29T08:43:58.892Z,3190
2017-03-29T08:44:40.240Z,3465
2017-03-29T08:45:21.364Z,3205
2017-03-29T08:46:01.819Z,3295
2017-03-29T08:46:42.245Z,3580
2017-03-29T08:47:22.656Z,3610
2017-03-29T08:48:03.104Z,3605
2017-03-29T08:48:43.535Z,3565
2017-03-29T08:49:23.939Z,3765
2017-03-29T08:50:04.336Z,3605
2017-03-29T08:50:44.781Z,3615
2017-03-29T08:51:25.831Z,3700
2017-03-29T08:52:06.351Z,3590
2017-03-29T08:52:46.742Z,3840
2017-03-29T08:53:27.709Z,3890
2017-03-29T08:54:08.177Z,3905
2017-03-29T08:54:49.289Z,3760
2017-03-29T08:55:29.654Z,4115
2017-03-29T08:56:10.039Z,3535
2017-03-29T08:56:50.481Z,2460
2017-03-29T08:57:30.915Z,4115
2017-03-29T08:58:11.360Z,3930
2017-03-29T08:58:51.772Z,3845
2017-03-29T08:59:32.210Z,4060
2017-03-29T09:00:12.678Z,4220
2017-03-29T09:00:53.108Z,4255
2017-03-29T09:01:33.572Z,4145
2017-03-29T09:02:14.013Z,3710
2017-03-29T09:02:54.400Z,3750
2017-03-29T09:03:34.790Z,3850
2017-03-29T09:04:15.244Z,4050
2017-03-29T09:04:55.693Z,4360
2017-03-29T09:05:36.154Z,2105
2017-03-29T09:06:16.584Z,3475
2017-03-29T09:06:56.989Z,2140
2017-03-29T09:07:37.388Z,3230
2017-03-29T09:08:19.636Z,3570
2017-03-29T09:09:00.988Z,3110
2017-03-29T09:11:29.333Z,1285
2017-03-29T09:12:09.780Z,1220
2017-03-29T09:12:50.216Z,1245
2017-03-29T09:13:30.673Z,1160
2017-03-29T09:14:11.088Z,1160
2017-03-29T09:14:51.499Z,1115
2017-03-29T09:15:31.908Z,990
2017-03-29T09:16:12.361Z,1040
2017-03-29T09:16:52.763Z,1135
2017-03-29T09:17:33.161Z,1070
2017-03-29T09:19:48.675Z,1240
2017-03-29T09:20:29.614Z,1275
2017-03-29T09:21:10.025Z,1315
2017-03-29T09:21:50.482Z,1135
2017-03-29T09:22:30.878Z,1060
2017-03-29T09:23:11.293Z,1775
2017-03-29T09:23:51.694Z,1145
2017-03-29T09:24:32.150Z,1065
2017-03-29T09:25:12.537Z,970
2017-03-29T09:25:53.046Z,970
2017-03-29T09:26:33.457Z,1075
2017-03-29T09:27:13.986Z,1170
2017-03-29T09:27:54.393Z,1600
2017-03-29T09:28:34.798Z,1380
2017-03-29T09:29:15.200Z,1685
2017-03-29T09:29:55.631Z,1255
2017-03-29T09:30:36.046Z,1245
2017-03-29T09:31:16.585Z,1440
2017-03-29T09:31:56.880Z,2580
2017-03-29T09:32:37.287Z,3510
2017-03-29T09:33:17.667Z,3905
2017-03-29T09:33:58.123Z,1200
2017-03-29T09:34:38.524Z,1195
2017-03-29T09:35:18.950Z,1150
2017-03-29T09:35:59.370Z,1285
2017-03-29T09:36:39.775Z,3955
2017-03-29T09:37:20.182Z,4645
2017-03-29T09:38:00.587Z,1065
2017-03-29T09:38:41.006Z,1275
2017-03-29T09:39:22.104Z,3930
2017-03-29T09:40:01.869Z,3810
2017-03-29T09:40:42.261Z,4230
2017-03-29T09:41:22.682Z,4585
2017-03-29T09:42:03.175Z,4805
2017-03-29T09:42:43.553Z,4405
2017-03-29T09:43:24.002Z,1195
2017-03-29T09:44:04.474Z,4560
2017-03-29T09:44:44.821Z,5000
2017-03-29T09:45:25.304Z,1180
2017-03-29T09:46:05.663Z,1385
2017-03-29T09:46:46.094Z,1250
2017-03-29T09:47:28.757Z,5030
2017-03-29T09:48:09.566Z,4725
2017-03-29T09:48:50.312Z,1285
2017-03-29T09:49:31.475Z,1140
2017-03-29T09:50:12.069Z,4430
2017-03-29T09:50:52.353Z,2230
2017-03-29T09:51:33.054Z,860
2017-03-29T09:52:13.202Z,910
2017-03-29T09:52:55.110Z,4565
2017-03-29T09:53:35.576Z,3485